createdAt,value
2022-11-27T00:04:11.596Z,0.00
2022-11-27T00:09:11.275Z,0.00
2022-11-27T00:14:14.294Z,0.00
2022-11-27T00:19:11.310Z,0.00
2022-11-27T00:24:11.190Z,0.00
2022-11-27T00:29:11.009Z,0.00
2022-11-27T00:34:11.051Z,0.00
2022-11-27T00:39:10.929Z,0.00
2022-11-27T00:44:10.855Z,0.00
2022-11-27T00:49:10.774Z,0.00
2022-11-27T00:54:10.769Z,0.00
2022-11-27T00:59:10.779Z,0.00
2022-11-27T01:04:10.607Z,0.00
2022-11-27T01:09:10.710Z,0.00
2022-11-27T01:14:13.498Z,0.00
2022-11-27T01:20:21.039Z,0.00
2022-11-27T01:25:26.643Z,0.00
2022-11-27T01:30:21.882Z,0.00
2022-11-27T01:35:20.833Z,0.00
2022-11-27T01:40:21.012Z,0.00
2022-11-27T01:45:20.649Z,0.00
2022-11-27T01:50:20.675Z,0.00
2022-11-27T01:55:20.528Z,0.00
2022-11-27T02:00:20.561Z,0.00
2022-11-27T02:05:20.535Z,0.00
2022-11-27T02:10:23.464Z,0.00
2022-11-27T02:15:20.305Z,0.00
2022-11-27T02:20:20.254Z,0.00
2022-11-27T02:25:23.945Z,0.00
2022-11-27T02:30:21.296Z,0.00
2022-11-27T02:35:20.079Z,0.00
2022-11-27T02:40:19.981Z,0.00
2022-11-27T02:45:19.906Z,0.00
2022-11-27T02:50:19.989Z,0.00
2022-11-27T02:55:19.796Z,0.00
2022-11-27T03:00:19.921Z,0.00
2022-11-27T03:05:19.694Z,0.00
2022-11-27T03:10:22.929Z,0.00
2022-11-27T03:15:19.618Z,0.00
2022-11-27T03:20:19.475Z,0.00
2022-11-27T03:25:19.366Z,0.00
2022-11-27T03:30:19.559Z,0.00
2022-11-27T03:35:19.879Z,0.00
2022-11-27T03:40:19.215Z,0.00
2022-11-27T03:45:19.095Z,0.00
2022-11-27T03:50:19.336Z,0.00
2022-11-27T03:55:19.155Z,0.00
2022-11-27T04:00:18.985Z,0.00
2022-11-27T04:05:26.880Z,0.00
2022-11-27T04:10:21.869Z,0.00
2022-11-27T04:15:18.858Z,0.00
2022-11-27T04:20:19.202Z,0.00
2022-11-27T04:25:19.013Z,0.00
2022-11-27T04:30:26.366Z,0.00
2022-11-27T04:35:18.520Z,0.00
2022-11-27T04:40:18.571Z,0.00
2022-11-27T04:45:18.374Z,0.00
2022-11-27T04:50:18.385Z,0.00
2022-11-27T04:55:18.234Z,0.00
2022-11-27T05:00:26.037Z,0.00
2022-11-27T05:05:18.134Z,0.00
2022-11-27T05:10:21.069Z,0.00
2022-11-27T05:15:18.184Z,0.00
2022-11-27T05:20:18.457Z,0.00
2022-11-27T05:25:17.873Z,0.00
2022-11-27T05:30:17.999Z,0.00
2022-11-27T05:35:17.831Z,0.00
2022-11-27T05:40:17.760Z,0.00
2022-11-27T05:45:17.586Z,0.00
2022-11-27T05:50:17.725Z,0.00
2022-11-27T05:55:17.619Z,0.00
2022-11-27T06:00:17.570Z,0.00
2022-11-27T06:05:17.319Z,0.00
2022-11-27T06:10:20.490Z,0.00
2022-11-27T06:15:17.240Z,0.00
2022-11-27T06:20:17.234Z,0.00
2022-11-27T06:25:17.106Z,0.00
2022-11-27T06:30:17.260Z,0.00
2022-11-27T06:35:17.130Z,0.00
2022-11-27T06:40:16.923Z,0.00
2022-11-27T06:45:16.925Z,5.62
2022-11-27T06:50:17.006Z,5.62
2022-11-27T06:55:24.214Z,11.25
2022-11-27T07:00:16.634Z,16.88
2022-11-27T07:05:16.609Z,22.50
2022-11-27T07:10:19.614Z,33.75
2022-11-27T07:15:16.666Z,39.38
2022-11-27T07:20:16.467Z,45.00
2022-11-27T07:25:16.404Z,50.62
2022-11-27T07:30:16.325Z,61.88
2022-11-27T07:35:16.273Z,61.88
2022-11-27T07:40:16.250Z,73.12
2022-11-27T07:45:16.085Z,84.38
2022-11-27T07:50:16.054Z,95.62
2022-11-27T07:55:15.930Z,112.50
2022-11-27T08:00:15.955Z,118.12
2022-11-27T08:05:15.888Z,112.50
2022-11-27T08:10:18.755Z,123.75
2022-11-27T08:15:15.680Z,140.62
2022-11-27T08:20:15.654Z,163.12
2022-11-27T08:25:15.558Z,146.25
2022-11-27T08:30:15.534Z,157.50
2022-11-27T08:35:15.610Z,168.75
2022-11-27T08:40:15.362Z,163.12
2022-11-27T08:45:15.269Z,174.38
2022-11-27T08:50:15.384Z,174.38
2022-11-27T08:55:15.372Z,180.00
2022-11-27T09:00:15.259Z,185.62
2022-11-27T09:05:15.094Z,174.38
2022-11-27T09:10:18.000Z,225.00
2022-11-27T09:15:14.944Z,208.12
2022-11-27T09:20:15.140Z,219.38
2022-11-27T09:25:14.804Z,241.88
2022-11-27T09:30:14.761Z,213.75
2022-11-27T09:35:22.790Z,219.38
2022-11-27T09:40:22.111Z,247.50
2022-11-27T09:45:14.560Z,247.50
2022-11-27T09:50:14.495Z,253.12
2022-11-27T09:55:14.579Z,241.88
2022-11-27T10:00:14.387Z,185.62
2022-11-27T10:05:14.958Z,146.25
2022-11-27T10:10:17.266Z,168.75
2022-11-27T10:15:14.289Z,196.88
2022-11-27T10:20:14.406Z,185.62
2022-11-27T10:25:14.195Z,185.62
2022-11-27T10:30:14.256Z,163.12
2022-11-27T10:35:13.970Z,151.88
2022-11-27T10:40:14.359Z,163.12
2022-11-27T10:45:13.791Z,157.50
2022-11-27T10:50:13.832Z,180.00
2022-11-27T10:55:13.629Z,180.00
2022-11-27T11:00:13.804Z,174.38
2022-11-27T11:05:35.020Z,168.75
2022-11-27T11:10:17.542Z,163.12
2022-11-27T11:15:13.807Z,163.12
2022-11-27T11:20:14.095Z,157.50
2022-11-27T11:25:13.254Z,157.50
2022-11-27T11:30:13.390Z,163.12
2022-11-27T11:35:13.190Z,168.75
2022-11-27T11:40:16.088Z,180.00
2022-11-27T11:45:13.482Z,168.75
2022-11-27T11:50:13.101Z,163.12
2022-11-27T11:55:12.891Z,168.75
2022-11-27T12:00:12.814Z,168.75
2022-11-27T12:05:12.941Z,168.75
2022-11-27T12:10:15.865Z,168.75
2022-11-27T12:15:12.660Z,168.75
2022-11-27T12:20:15.657Z,163.12
2022-11-27T12:25:12.450Z,157.50
2022-11-27T12:30:12.752Z,157.50
2022-11-27T12:35:12.480Z,168.75
2022-11-27T12:40:12.319Z,185.62
2022-11-27T12:45:12.266Z,202.50
2022-11-27T12:50:12.330Z,208.12
2022-11-27T12:55:12.082Z,185.62
2022-11-27T13:00:12.065Z,185.62
2022-11-27T13:05:12.326Z,185.62
2022-11-27T13:10:14.950Z,174.38
2022-11-27T13:15:12.373Z,151.88
2022-11-27T13:20:12.053Z,140.62
2022-11-27T13:25:11.721Z,151.88
2022-11-27T13:30:11.760Z,157.50
2022-11-27T13:35:11.605Z,146.25
2022-11-27T13:40:12.416Z,135.00
2022-11-27T13:45:20.290Z,129.38
2022-11-27T13:50:11.687Z,123.75
2022-11-27T13:55:11.315Z,118.12
2022-11-27T14:00:11.395Z,112.50
2022-11-27T14:05:11.220Z,101.25
2022-11-27T14:10:21.969Z,90.00
2022-11-27T14:15:18.540Z,73.12
2022-11-27T14:20:11.014Z,56.25
2022-11-27T14:25:11.044Z,45.00
2022-11-27T14:30:10.946Z,39.38
2022-11-27T14:35:11.348Z,39.38
2022-11-27T14:40:13.648Z,33.75
2022-11-27T14:45:10.769Z,28.12
2022-11-27T14:50:10.775Z,22.50
2022-11-27T14:55:10.628Z,16.88
2022-11-27T15:00:10.956Z,16.88
2022-11-27T15:05:11.611Z,11.25
2022-11-27T15:10:13.765Z,5.62
2022-11-27T15:15:11.061Z,5.62
2022-11-27T15:20:10.295Z,0.00
2022-11-27T15:25:10.198Z,0.00
2022-11-27T15:30:11.133Z,0.00
2022-11-27T15:35:10.024Z,0.00
2022-11-27T15:40:17.615Z,0.00
2022-11-27T15:45:10.180Z,0.00
2022-11-27T15:50:09.846Z,0.00
2022-11-27T15:55:09.907Z,0.00
2022-11-27T16:00:17.720Z,0.00
2022-11-27T16:05:17.110Z,0.00
2022-11-27T16:10:20.770Z,0.00
2022-11-27T16:15:09.734Z,0.00
2022-11-27T16:20:09.505Z,0.00
2022-11-27T16:25:09.419Z,0.00
2022-11-27T16:30:09.621Z,0.00
2022-11-27T16:35:09.395Z,0.00
2022-11-27T16:40:09.189Z,0.00
2022-11-27T16:45:09.062Z,0.00
2022-11-27T16:50:09.261Z,0.00
2022-11-27T16:55:08.965Z,0.00
2022-11-27T17:00:08.985Z,0.00
2022-11-27T17:05:08.895Z,0.00
2022-11-27T17:10:11.853Z,0.00
2022-11-27T17:15:08.860Z,0.00
2022-11-27T17:20:08.859Z,0.00
2022-11-27T17:25:08.585Z,0.00
2022-11-27T17:30:08.562Z,0.00
2022-11-27T17:35:08.702Z,0.00
2022-11-27T17:40:08.442Z,0.00
2022-11-27T17:45:08.326Z,0.00
2022-11-27T17:50:08.852Z,0.00
2022-11-27T17:55:08.249Z,0.00
2022-11-27T18:00:08.964Z,0.00
2022-11-27T18:05:09.200Z,0.00
2022-11-27T18:10:11.065Z,0.00
2022-11-27T18:15:07.954Z,0.00
2022-11-27T18:20:07.941Z,0.00
2022-11-27T18:25:07.847Z,0.00
2022-11-27T18:30:08.277Z,0.00
2022-11-27T18:35:07.735Z,0.00
2022-11-27T18:40:07.816Z,0.00
2022-11-27T18:45:20.238Z,0.00
2022-11-27T18:50:08.727Z,0.00
2022-11-27T18:55:07.414Z,0.00
2022-11-27T19:00:07.385Z,0.00
2022-11-27T19:05:07.391Z,0.00
2022-11-27T19:10:10.265Z,0.00
2022-11-27T19:15:07.160Z,0.00
2022-11-27T19:20:07.560Z,0.00
2022-11-27T19:25:07.025Z,0.00
2022-11-27T19:30:07.145Z,0.00
2022-11-27T19:35:15.019Z,0.00
2022-11-27T19:40:06.826Z,0.00
2022-11-27T19:45:06.948Z,0.00
2022-11-27T19:50:06.717Z,0.00
2022-11-27T19:55:06.775Z,0.00
2022-11-27T20:00:06.587Z,0.00
2022-11-27T20:05:06.725Z,0.00
2022-11-27T20:10:09.603Z,0.00
2022-11-27T20:15:06.381Z,0.00
2022-11-27T20:20:06.331Z,0.00
2022-11-27T20:25:21.774Z,0.00
2022-11-27T20:30:07.283Z,0.00
2022-11-27T20:35:06.198Z,0.00
2022-11-27T20:40:07.027Z,0.00
2022-11-27T20:45:05.987Z,0.00
2022-11-27T20:50:06.021Z,0.00
2022-11-27T20:55:05.933Z,0.00
2022-11-27T21:00:05.826Z,0.00
